Time;durP1;ratioP1;P1;durP2;ratioP2;P2;SDS_P1;SDS_P2;PMS_P1;PMS_P2;Temp;Humidity;BMP_temperature;BMP_pressure;BME280_temperature;BME280_humidity;BME280_pressure;Samples;Min_cycle;Max_cycle;Signal;HPM_P1;HPM_P2
2021/03/13 17:01:41;;;;;;;11.82;10.65;;;30.00;87.40;;;;;;5054494;27;21118;-53
2021/03/13 17:04:13;;;;;;;10.70;9.68;;;29.60;91.70;;;;;;5053028;28;20259;-54
2021/03/13 17:06:44;;;;;;;9.95;8.95;;;29.80;91.20;;;;;;5051658;28;20197;-50
2021/03/13 17:09:14;;;;;;;10.32;9.32;;;29.90;90.80;;;;;;5050269;28;20304;-53
2021/03/13 17:11:45;;;;;;;10.65;9.55;;;30.00;90.50;;;;;;5056133;28;20636;-50
2021/03/13 17:14:15;;;;;;;10.63;8.52;;;30.00;90.20;;;;;;5064301;28;20205;-52
2021/03/13 17:16:47;;;;;;;9.95;8.45;;;30.00;90.10;;;;;;5050275;28;20199;-52
2021/03/13 17:19:17;;;;;;;10.07;8.30;;;30.00;90.00;;;;;;5044867;28;20585;-52
2021/03/13 17:21:48;;;;;;;9.38;8.48;;;30.00;90.00;;;;;;5044724;28;20710;-53
2021/03/13 17:24:19;;;;;;;11.30;9.07;;;30.00;89.80;;;;;;5044924;28;20220;-52
2021/03/13 17:26:49;;;;;;;9.68;8.48;;;30.00;89.80;;;;;;5044538;28;20638;-53
2021/03/13 17:29:20;;;;;;;10.20;9.05;;;30.00;89.90;;;;;;5044624;28;20226;-55
2021/03/13 17:31:51;;;;;;;9.25;8.32;;;30.00;89.80;;;;;;5063637;28;20277;-53
2021/03/13 17:34:22;;;;;;;9.35;8.35;;;30.00;90.00;;;;;;5063994;28;20197;-51
2021/03/13 17:36:53;;;;;;;9.88;8.63;;;29.90;89.90;;;;;;5063296;28;20197;-54
2021/03/13 17:39:23;;;;;;;9.77;8.52;;;29.90;90.00;;;;;;5049441;28;20194;-53
2021/03/13 17:41:55;;;;;;;9.15;8.23;;;29.90;90.00;;;;;;5061546;28;20682;-52
2021/03/13 17:44:26;;;;;;;11.98;8.88;;;29.90;90.00;;;;;;5062863;28;20206;-52
2021/03/13 17:46:58;;;;;;;9.90;8.90;;;29.90;90.10;;;;;;5063105;28;20202;-51
2021/03/13 17:49:29;;;;;;;9.23;8.32;;;29.90;90.10;;;;;;5050591;28;20242;-51
2021/03/13 17:51:59;;;;;;;9.98;8.70;;;29.90;90.10;;;;;;5043522;28;20226;-54
2021/03/13 17:54:30;;;;;;;8.50;7.80;;;29.90;90.10;;;;;;5044910;28;20202;-51
2021/03/13 17:57:00;;;;;;;9.40;8.32;;;29.90;90.20;;;;;;5044595;28;20194;-50
2021/03/13 17:59:31;;;;;;;11.38;8.57;;;29.90;90.20;;;;;;5047515;28;20906;-53
2021/03/13 18:02:02;;;;;;;8.73;7.95;;;29.80;90.20;;;;;;5054610;28;20198;-51
2021/03/13 18:04:34;;;;;;;8.18;7.38;;;29.80;90.30;;;;;;5066976;28;20736;-52
2021/03/13 18:07:06;;;;;;;8.98;8.07;;;29.80;90.30;;;;;;5051057;28;20293;-53
2021/03/13 18:09:37;;;;;;;9.23;7.78;;;29.80;90.30;;;;;;5050727;28;20268;-56
2021/03/13 18:12:08;;;;;;;8.27;7.43;;;29.80;90.30;;;;;;5051045;28;20284;-53
2021/03/13 18:14:38;;;;;;;9.40;7.97;;;29.80;90.30;;;;;;5051094;28;20272;-52
2021/03/13 18:17:10;;;;;;;8.50;7.55;;;29.80;90.40;;;;;;5050948;28;20284;-54
2021/03/13 18:19:41;;;;;;;8.43;7.45;;;29.80;90.40;;;;;;5051187;28;20209;-54
2021/03/13 18:22:12;;;;;;;9.23;8.30;;;29.80;90.40;;;;;;5051426;28;20208;-53
2021/03/13 18:24:42;;;;;;;8.45;7.43;;;29.80;90.40;;;;;;5050045;28;20202;-50
2021/03/13 18:27:13;;;;;;;8.35;7.55;;;29.80;90.40;;;;;;5051593;28;20281;-51
2021/03/13 18:29:43;;;;;;;8.25;7.45;;;29.80;90.40;;;;;;5050863;28;20562;-52
2021/03/13 18:32:15;;;;;;;9.82;8.25;;;29.80;90.50;;;;;;5051008;28;20202;-55
2021/03/13 18:34:46;;;;;;;8.90;8.00;;;29.80;90.50;;;;;;5051132;28;20637;-56
2021/03/13 18:37:17;;;;;;;9.20;7.47;;;29.80;90.40;;;;;;5067881;28;20213;-52
2021/03/13 18:39:47;;;;;;;7.72;6.90;;;29.80;90.40;;;;;;5068966;28;20198;-56
2021/03/13 18:42:18;;;;;;;9.57;8.20;;;29.80;90.40;;;;;;5069038;28;20205;-50
2021/03/13 18:44:49;;;;;;;8.98;8.05;;;29.80;90.50;;;;;;5068988;28;20280;-52
2021/03/13 18:47:21;;;;;;;8.38;7.43;;;29.70;90.40;;;;;;5067473;28;20297;-51
2021/03/13 18:49:53;;;;;;;8.85;7.43;;;29.70;90.50;;;;;;5050145;28;20669;-55
2021/03/13 18:52:25;;;;;;;8.65;7.60;;;29.70;90.60;;;;;;5050456;28;20252;-56
2021/03/13 18:54:57;;;;;;;10.00;8.25;;;29.70;90.50;;;;;;5049950;28;20277;-55
2021/03/13 18:57:28;;;;;;;10.57;7.97;;;29.70;90.50;;;;;;5049930;28;20229;-51
2021/03/13 18:59:59;;;;;;;10.75;7.57;;;29.70;90.50;;;;;;5053201;28;20317;-52
2021/03/13 19:02:31;;;;;;;8.82;7.78;;;29.70;90.50;;;;;;5069113;28;20259;-53
2021/03/13 19:05:02;;;;;;;9.38;7.65;;;29.70;90.60;;;;;;5057879;28;20198;-55
2021/03/13 19:07:33;;;;;;;8.45;6.60;;;29.70;90.60;;;;;;5049547;28;20296;-52
2021/03/13 19:10:04;;;;;;;9.05;6.70;;;29.70;90.60;;;;;;5049779;28;20256;-53
2021/03/13 19:12:35;;;;;;;9.85;7.03;;;29.70;90.70;;;;;;5049148;28;20208;-52
2021/03/13 19:15:07;;;;;;;8.27;7.35;;;29.70;90.70;;;;;;5049961;28;20206;-55
2021/03/13 19:17:46;;;;;;;7.50;6.82;;;29.60;90.70;;;;;;5049276;28;20246;-54
2021/03/13 19:20:17;;;;;;;9.38;8.05;;;29.60;90.70;;;;;;5049032;28;20238;-52
2021/03/13 19:22:47;;;;;;;9.02;8.13;;;29.60;90.70;;;;;;5049935;28;20681;-53
2021/03/13 19:25:18;;;;;;;10.25;9.13;;;29.60;90.70;;;;;;5049625;28;20210;-53
2021/03/13 19:27:49;;;;;;;9.20;8.38;;;29.60;90.70;;;;;;5049514;28;20201;-52
2021/03/13 19:30:20;;;;;;;8.25;7.55;;;29.60;90.70;;;;;;5049503;28;20229;-51
2021/03/13 19:32:51;;;;;;;7.70;7.00;;;29.60;90.80;;;;;;5052827;28;20247;-53
2021/03/13 19:35:22;;;;;;;9.45;8.27;;;29.50;90.90;;;;;;5067164;28;20240;-53
2021/03/13 19:37:53;;;;;;;8.48;7.63;;;29.50;90.90;;;;;;5065847;28;20198;-53
2021/03/13 19:40:23;;;;;;;9.23;8.25;;;29.50;90.90;;;;;;5052557;28;20224;-50
2021/03/13 19:42:54;;;;;;;10.02;8.80;;;29.60;91.00;;;;;;5048896;28;20203;-57
2021/03/13 19:45:25;;;;;;;9.32;8.43;;;29.50;91.00;;;;;;5049347;28;20198;-53
2021/03/13 19:47:57;;;;;;;10.30;8.63;;;29.50;91.00;;;;;;5049202;28;20208;-51
2021/03/13 19:50:28;;;;;;;9.45;8.52;;;29.50;91.10;;;;;;5049111;28;21104;-54
2021/03/13 19:52:58;;;;;;;9.73;8.27;;;29.50;91.10;;;;;;5048138;28;20290;-53
2021/03/13 19:55:29;;;;;;;10.02;8.98;;;29.50;91.10;;;;;;5049051;28;20218;-50
2021/03/13 19:57:59;;;;;;;11.57;8.85;;;29.50;91.10;;;;;;5048555;28;20248;-52
2021/03/13 20:00:30;;;;;;;9.27;8.45;;;29.50;91.20;;;;;;5049223;28;20234;-53
2021/03/13 20:03:01;;;;;;;9.40;8.50;;;29.50;91.20;;;;;;5048475;28;20190;-52
2021/03/13 20:05:32;;;;;;;8.05;7.28;;;29.50;91.40;;;;;;5064911;28;20257;-54
2021/03/13 20:08:03;;;;;;;9.02;7.82;;;29.50;91.30;;;;;;5055833;28;20265;-55
2021/03/13 20:10:35;;;;;;;8.45;7.65;;;29.50;91.40;;;;;;5067175;28;20205;-53
2021/03/13 20:13:06;;;;;;;8.55;7.68;;;29.50;91.40;;;;;;5066985;28;20197;-54
2021/03/13 20:15:36;;;;;;;8.43;7.72;;;29.40;91.40;;;;;;5065648;28;20665;-51
2021/03/13 20:18:08;;;;;;;9.30;8.40;;;29.50;91.50;;;;;;5067231;28;20713;-54
2021/03/13 20:20:39;;;;;;;9.35;8.45;;;29.40;91.50;;;;;;5067111;28;20211;-50
2021/03/13 20:23:09;;;;;;;9.38;7.97;;;29.40;91.50;;;;;;5054506;28;20202;-53
2021/03/13 20:25:40;;;;;;;9.02;8.02;;;29.40;91.50;;;;;;5063457;28;20209;-55
2021/03/13 20:28:11;;;;;;;8.00;7.10;;;29.40;91.50;;;;;;5052291;28;20208;-52
2021/03/13 20:30:42;;;;;;;9.98;7.90;;;29.40;91.60;;;;;;5067486;28;20224;-53
2021/03/13 20:33:14;;;;;;;8.85;7.95;;;29.40;91.60;;;;;;5067135;28;20535;-50
2021/03/13 20:35:45;;;;;;;9.70;8.80;;;29.40;91.60;;;;;;5067530;28;20201;-53
2021/03/13 20:38:15;;;;;;;9.18;8.27;;;29.40;91.50;;;;;;5066400;28;20208;-50
2021/03/13 20:40:47;;;;;;;9.15;8.30;;;29.40;91.50;;;;;;5067352;28;20296;-54
2021/03/13 20:43:19;;;;;;;9.40;8.55;;;29.40;91.50;;;;;;5067146;28;20202;-53
2021/03/13 20:45:49;;;;;;;8.60;7.70;;;29.40;91.50;;;;;;5067116;28;20193;-51
2021/03/13 20:48:21;;;;;;;8.25;7.18;;;29.40;91.60;;;;;;5065592;28;20202;-52
2021/03/13 20:50:52;;;;;;;9.25;7.50;;;29.40;91.70;;;;;;5067086;28;20233;-51
2021/03/13 20:53:22;;;;;;;8.82;7.93;;;29.40;91.70;;;;;;5067637;28;20259;-53
2021/03/13 20:55:53;;;;;;;8.18;7.45;;;29.30;91.70;;;;;;5067553;28;20261;-53
2021/03/13 20:58:23;;;;;;;9.88;8.05;;;29.30;92.10;;;;;;5065446;28;20207;-52
2021/03/13 21:00:54;;;;;;;9.43;8.48;;;29.30;91.70;;;;;;5051484;28;20312;-53
2021/03/13 21:03:26;;;;;;;9.07;8.13;;;29.30;91.70;;;;;;5066866;28;20224;-54
2021/03/13 21:05:57;;;;;;;8.57;7.78;;;29.30;91.80;;;;;;5066832;28;20197;-53
2021/03/13 21:08:27;;;;;;;9.18;8.27;;;29.30;91.70;;;;;;5066962;28;20766;-51
2021/03/13 21:10:58;;;;;;;11.48;8.27;;;29.30;91.80;;;;;;5065714;28;20226;-52
2021/03/13 21:13:29;;;;;;;10.00;8.45;;;29.30;91.80;;;;;;5067076;28;20220;-51
2021/03/13 21:16:00;;;;;;;8.95;8.13;;;29.30;91.80;;;;;;5057030;28;20638;-52
2021/03/13 21:18:31;;;;;;;8.70;7.90;;;29.30;91.90;;;;;;5048117;28;20206;-51
2021/03/13 21:21:02;;;;;;;9.15;8.35;;;29.30;91.90;;;;;;5047966;28;20221;-54
2021/03/13 21:23:33;;;;;;;8.73;7.82;;;29.30;91.80;;;;;;5051784;28;20654;-52
2021/03/13 21:26:03;;;;;;;9.82;8.82;;;29.30;91.90;;;;;;5066135;28;20266;-53
2021/03/13 21:28:34;;;;;;;9.50;8.60;;;29.30;91.90;;;;;;5066837;28;20248;-53
2021/03/13 21:31:13;;;;;;;8.18;7.47;;;29.30;91.90;;;;;;5064681;28;20701;-53
2021/03/13 21:33:45;;;;;;;11.50;8.88;;;29.30;91.90;;;;;;5051153;28;20201;-55
2021/03/13 21:36:16;;;;;;;8.77;7.88;;;29.30;92.00;;;;;;5066370;28;20270;-54
2021/03/13 21:38:47;;;;;;;9.82;8.23;;;29.30;91.90;;;;;;5069930;28;20193;-50
2021/03/13 21:41:17;;;;;;;10.80;8.07;;;29.30;91.90;;;;;;5070129;28;20296;-50
2021/03/13 21:43:48;;;;;;;10.30;8.50;;;29.30;91.90;;;;;;5051271;28;20206;-50
2021/03/13 21:46:19;;;;;;;8.98;8.10;;;29.30;92.00;;;;;;5051099;28;20550;-51
2021/03/13 21:48:51;;;;;;;7.82;7.03;;;29.30;92.00;;;;;;5051565;28;20260;-53
2021/03/13 21:51:21;;;;;;;8.98;8.07;;;29.20;92.00;;;;;;5064793;28;20233;-55
2021/03/13 21:53:52;;;;;;;12.70;8.82;;;29.20;92.00;;;;;;5067886;28;20284;-51
2021/03/13 21:56:22;;;;;;;9.55;8.63;;;29.20;92.00;;;;;;5069708;28;20193;-50
2021/03/13 21:58:53;;;;;;;9.98;7.72;;;29.20;92.00;;;;;;5070082;28;20287;-52
2021/03/13 22:01:24;;;;;;;9.23;8.38;;;29.20;92.10;;;;;;5056875;28;20233;-56
2021/03/13 22:03:56;;;;;;;8.98;8.07;;;29.20;92.10;;;;;;5066196;28;20828;-54
2021/03/13 22:06:26;;;;;;;9.20;7.85;;;29.20;92.10;;;;;;5069337;28;20207;-50
2021/03/13 22:08:57;;;;;;;8.32;7.50;;;29.20;92.10;;;;;;5069171;28;20212;-51
2021/03/13 22:11:27;;;;;;;9.00;7.95;;;29.20;92.20;;;;;;5068824;28;20637;-52
2021/03/13 22:13:59;;;;;;;10.38;8.10;;;29.20;92.20;;;;;;5069406;28;20215;-52
2021/03/13 22:16:36;;;;;;;9.43;8.00;;;29.20;92.20;;;;;;5068683;28;20203;-52
2021/03/13 22:19:08;;;;;;;9.85;8.32;;;29.20;92.20;;;;;;5069198;28;20887;-52
2021/03/13 22:21:39;;;;;;;9.43;8.10;;;29.20;92.20;;;;;;5068978;28;20205;-51
2021/03/13 22:24:10;;;;;;;8.23;7.47;;;29.20;92.20;;;;;;5055138;28;20665;-54
2021/03/13 22:26:40;;;;;;;8.30;7.63;;;29.20;92.20;;;;;;5050524;28;20198;-54
2021/03/13 22:29:11;;;;;;;9.30;8.40;;;29.20;92.30;;;;;;5050637;28;20202;-54
2021/03/13 22:31:42;;;;;;;7.68;6.97;;;29.10;92.20;;;;;;5050248;28;20307;-53
2021/03/13 22:34:15;;;;;;;9.90;8.77;;;29.20;92.40;;;;;;5051261;28;20198;-52
2021/03/13 22:36:45;;;;;;;9.68;8.77;;;29.20;92.40;;;;;;5050618;28;20202;-54
2021/03/13 22:39:16;;;;;;;10.68;8.48;;;29.20;92.40;;;;;;5053916;28;20201;-51
2021/03/13 22:41:47;;;;;;;10.43;8.02;;;29.20;92.40;;;;;;5068882;28;20710;-52
2021/03/13 22:44:17;;;;;;;9.25;8.35;;;29.20;92.50;;;;;;5068634;28;20208;-55
2021/03/13 22:46:56;;;;;;;8.40;7.53;;;29.20;92.50;;;;;;5067759;28;20197;-53
2021/03/13 22:49:28;;;;;;;9.13;8.25;;;29.10;92.50;;;;;;5050545;28;20233;-55
2021/03/13 22:51:59;;;;;;;9.13;8.20;;;29.20;92.60;;;;;;5050260;28;20657;-55
2021/03/13 22:54:30;;;;;;;9.10;8.30;;;29.20;92.60;;;;;;5050271;28;20218;-52
2021/03/13 22:57:00;;;;;;;9.40;8.57;;;29.20;92.60;;;;;;5049936;28;20233;-52
2021/03/13 22:59:31;;;;;;;9.52;8.65;;;29.10;92.60;;;;;;5049525;28;20241;-50
2021/03/13 23:02:01;;;;;;;11.05;10.00;;;29.20;92.70;;;;;;5049911;28;20272;-52
2021/03/13 23:04:34;;;;;;;9.68;8.77;;;29.20;92.80;;;;;;5050008;28;20294;-51
2021/03/13 23:07:04;;;;;;;10.43;8.45;;;29.20;92.80;;;;;;5049507;28;20200;-50
2021/03/13 23:09:34;;;;;;;8.65;7.85;;;29.20;92.80;;;;;;5049265;28;20198;-53
2021/03/13 23:12:05;;;;;;;8.55;7.82;;;29.20;92.80;;;;;;5053748;28;20229;-50
2021/03/13 23:14:40;;;;;;;8.27;7.28;;;29.20;92.80;;;;;;5068164;28;20209;-53
2021/03/13 23:17:22;;;;;;;8.10;7.35;;;29.20;92.80;;;;;;5068364;28;20200;-51
2021/03/13 23:19:54;;;;;;;9.35;7.97;;;29.20;92.80;;;;;;5050590;28;20198;-50
2021/03/13 23:22:25;;;;;;;9.20;8.35;;;29.20;92.80;;;;;;5049465;28;20793;-50
2021/03/13 23:24:56;;;;;;;11.25;8.48;;;29.20;92.80;;;;;;5049198;28;20305;-51
2021/03/13 23:27:26;;;;;;;9.02;8.23;;;29.20;92.80;;;;;;5049163;28;20256;-50
2021/03/13 23:29:56;;;;;;;10.68;8.90;;;29.20;92.80;;;;;;5049162;28;20296;-53
2021/03/13 23:32:27;;;;;;;9.65;8.65;;;29.20;92.80;;;;;;5066826;28;20209;-52
2021/03/13 23:34:59;;;;;;;9.13;8.23;;;29.20;92.90;;;;;;5067438;28;20657;-54
2021/03/13 23:37:30;;;;;;;9.32;8.25;;;29.20;92.90;;;;;;5067983;28;20314;-55
2021/03/13 23:40:00;;;;;;;10.15;8.57;;;29.20;92.90;;;;;;5067333;28;20205;-53
2021/03/13 23:42:30;;;;;;;9.27;8.38;;;29.20;92.90;;;;;;5066034;28;20202;-53
2021/03/13 23:45:01;;;;;;;9.10;8.20;;;29.20;92.90;;;;;;5067157;28;20204;-56
2021/03/13 23:47:48;;;;;;;9.32;8.43;;;29.10;92.90;;;;;;5067758;28;20212;-52
2021/03/13 23:50:20;;;;;;;9.68;8.77;;;29.20;92.90;;;;;;5052118;28;20276;-53
2021/03/13 23:52:51;;;;;;;10.25;8.70;;;29.20;93.00;;;;;;5065843;28;20928;-54
2021/03/13 23:55:23;;;;;;;9.05;8.25;;;29.20;93.00;;;;;;5066947;28;20654;-53
2021/03/13 23:57:53;;;;;;;10.32;9.20;;;29.20;93.00;;;;;;5066655;28;20715;-52
